Sullivan, MO (63080)

6:21 PM CST on November 21, 2014 (GMT -0600)
Lake St Clair | Change Station
CLOSE
Current Station
Personal Weather Station
Location: Saint Clair, MO
Elevation: 679 ft
Nearby Weather Stations

Elev 679 ft 38.33 °N, 90.99 °W | Updated 14 minutes ago

Overcast
Overcast
42.1 °F
Feels Like 39 °F
N
5.3
Wind Variable Wind from SSE

Today
High -- | Low -- °F
--% Chance of Precip.
Yesterday
High -- | Low -- °F
Precip. -- in
6:52 AM 4:48 PM
Waning Crescent, 0% visible
Pressure 30.25 in
Visibility 10.0 miles
Clouds Few 2500 ft
Overcast 3500 ft
Windchill 39 °F
Dew Point 27 °F
Humidity 54%
Rainfall 0.00 in
Snow Depth Not available.
UV 0 out of 12
Pollen .40 out of 12
Air Quality Not available.
Flu Activity Not available.
METAR KFYG 212355Z AUTO 13009KT 10SM UP FEW025 OVC035 05/M04 A3025 RMK AO2

More Conditions Fewer Conditions

Pressure 30.25 in
Visibility 10.0 miles
Clouds Few 2500 ft
Overcast 3500 ft
Windchill 39 °F
Dew Point 27 °F
Humidity 54%
Rainfall 0.00 in
Snow Depth Not available.
UV 0 out of 12
Pollen .40 out of 12
Air Quality Not available.
Flu Activity Not available.
METAR KFYG 212355Z AUTO 13009KT 10SM UP FEW025 OVC035 05/M04 A3025 RMK AO2

More Conditions Fewer Conditions

10-Day Weather Forecast

Almanac

Astronomy

Nov. 21, 2014 Rise Set
Actual Time
Civil Twilight
Nautical Twilight
Astronomical Twilight
Moon
Length of Visible Light
Length of Day
Tomorrow will be .
, % of the Moon is Illuminated

Today's Extremes

State Highs State Lows

Community

WunderPhotos

Upload Photos

1,772,744 photos uploaded!

WunderBlogs® & News

Nearby

Air Quality

  Air Quality AQ Index Pollutant
Not available.

Snow Depth

Station Depth Elevation

Earthquake Activity

City Distance Mag. Time & Date
Minimum magnitude displayed is 2.5.

Coastal Water Temperatures

Place Temperature

Nearby Weather Stations